Time;durP1;ratioP1;P1;durP2;ratioP2;P2;SDS_P1;SDS_P2;PMS_P1;PMS_P2;Temp;Humidity;BMP_temperature;BMP_pressure;BME280_temperature;BME280_humidity;BME280_pressure;Samples;Min_cycle;Max_cycle;Signal;HPM_P1;HPM_P2
2023/07/13 00:01:16;;;;;;;5.18;1.30;;;15.80;99.90;;;;;;5011909;28;20206;-71
2023/07/13 00:03:42;;;;;;;0.35;0.35;;;15.70;99.90;;;;;;5010716;28;20867;-71
2023/07/13 00:06:09;;;;;;;0.10;0.10;;;15.70;99.90;;;;;;4993535;28;20199;-71
2023/07/13 00:08:35;;;;;;;0.20;0.20;;;15.80;99.90;;;;;;5011626;28;20201;-70
2023/07/13 00:11:02;;;;;;;0.32;0.32;;;15.80;99.90;;;;;;5011306;28;20237;-71
2023/07/13 00:13:29;;;;;;;0.75;0.43;;;15.80;99.90;;;;;;5009819;28;20198;-71
2023/07/13 00:15:55;;;;;;;0.30;0.30;;;15.70;99.90;;;;;;5011444;28;20198;-71
2023/07/13 00:18:22;;;;;;;0.32;0.32;;;15.50;99.90;;;;;;5013405;28;20194;-71
2023/07/13 00:20:48;;;;;;;0.20;0.20;;;15.40;99.90;;;;;;5015244;28;20776;-71
2023/07/13 00:23:14;;;;;;;0.40;0.40;;;15.30;99.90;;;;;;4997605;28;20250;-72
2023/07/13 00:25:40;;;;;;;0.10;0.10;;;15.20;99.90;;;;;;5015281;28;20213;-72
2023/07/13 00:28:06;;;;;;;0.47;0.47;;;15.20;99.90;;;;;;5015130;28;20190;-71
2023/07/13 00:30:31;;;;;;;0.43;0.38;;;15.40;99.90;;;;;;5015034;28;20213;-72
2023/07/13 00:32:57;;;;;;;0.10;0.10;;;15.40;99.90;;;;;;5015247;28;20302;-71
2023/07/13 00:35:23;;;;;;;0.30;0.30;;;15.50;99.90;;;;;;5014748;28;20285;-72
2023/07/13 00:37:49;;;;;;;0.15;0.15;;;15.60;99.90;;;;;;4993973;28;20199;-71
2023/07/13 00:40:16;;;;;;;0.50;0.50;;;15.60;99.90;;;;;;4995519;28;20242;-71
2023/07/13 00:42:42;;;;;;;1.08;0.93;;;15.70;99.90;;;;;;4995505;28;20247;-71
2023/07/13 00:45:11;;;;;;;0.57;0.43;;;15.70;99.90;;;;;;4977116;28;20221;-71
2023/07/13 00:47:37;;;;;;;0.80;0.43;;;15.70;99.90;;;;;;4995731;28;20580;-71
2023/07/13 00:50:06;;;;;;;2.42;0.68;;;15.70;99.90;;;;;;4995568;28;20662;-71
2023/07/13 00:52:34;;;;;;;0.57;0.57;;;15.70;99.90;;;;;;4997919;28;20249;-73
2023/07/13 00:55:01;;;;;;;0.65;0.65;;;15.60;99.90;;;;;;5014915;28;20207;-71
2023/07/13 00:57:27;;;;;;;0.10;0.10;;;15.60;99.90;;;;;;4996870;28;20205;-72
2023/07/13 00:59:57;;;;;;;0.10;0.10;;;15.60;99.90;;;;;;5014568;28;20277;-71
2023/07/13 01:02:24;;;;;;;0.20;0.20;;;15.50;99.90;;;;;;5028740;23;20238;-75
2023/07/13 01:04:50;;;;;;;0.10;0.10;;;15.50;99.90;;;;;;5034406;28;20599;-74
2023/07/13 01:07:18;;;;;;;0.10;0.10;;;15.60;99.90;;;;;;5015737;28;20198;-73
2023/07/13 01:09:44;;;;;;;0.65;0.65;;;15.60;99.90;;;;;;5015796;28;20205;-73
2023/07/13 01:12:11;;;;;;;0.10;0.10;;;15.60;99.90;;;;;;5034335;28;20182;-73
2023/07/13 01:14:36;;;;;;;18.23;0.75;;;15.60;99.90;;;;;;5034022;28;20198;-74
2023/07/13 01:17:03;;;;;;;0.13;0.13;;;15.60;99.90;;;;;;5016477;28;20194;-74
2023/07/13 01:19:42;;;;;;;1.42;0.60;;;15.60;99.90;;;;;;5033833;28;20661;-74
2023/07/13 01:22:18;;;;;;;0.25;0.25;;;15.60;99.90;;;;;;5016097;28;20328;-72
2023/07/13 01:24:46;;;;;;;1.08;0.68;;;15.70;99.90;;;;;;5033963;28;20198;-73
2023/07/13 01:27:16;;;;;;;1.08;0.30;;;15.70;99.90;;;;;;5033878;28;20591;-74
2023/07/13 01:29:44;;;;;;;0.20;0.20;;;15.80;99.90;;;;;;5032470;28;20195;-74
2023/07/13 01:32:12;;;;;;;1.27;0.57;;;15.80;99.90;;;;;;5033908;28;20199;-73
2023/07/13 01:34:40;;;;;;;0.60;0.43;;;15.80;99.90;;;;;;5032185;28;20228;-73
2023/07/13 01:37:06;;;;;;;0.10;0.10;;;15.70;99.90;;;;;;5040236;28;20186;-74
2023/07/13 01:39:32;;;;;;;0.10;0.10;;;15.70;99.90;;;;;;5052899;28;20203;-74
2023/07/13 01:42:00;;;;;;;0.50;0.20;;;15.70;99.90;;;;;;5035659;28;20691;-73
2023/07/13 01:44:26;;;;;;;0.10;0.10;;;15.80;99.90;;;;;;5053356;28;20559;-74
2023/07/13 01:46:52;;;;;;;1.65;0.47;;;15.70;99.90;;;;;;5053453;28;20194;-74
2023/07/13 01:49:18;;;;;;;0.10;0.10;;;15.70;99.90;;;;;;5051969;28;20794;-75
2023/07/13 01:51:44;;;;;;;0.80;0.47;;;15.70;99.90;;;;;;5035535;28;20197;-74
2023/07/13 01:54:09;;;;;;;0.22;0.22;;;15.50;99.90;;;;;;5052201;28;20675;-74
2023/07/13 01:56:35;;;;;;;0.10;0.10;;;15.50;99.90;;;;;;5052984;28;20364;-73
2023/07/13 01:59:01;;;;;;;2.00;0.52;;;15.60;99.90;;;;;;5053319;28;20193;-73
2023/07/13 02:01:26;;;;;;;0.10;0.10;;;15.60;99.90;;;;;;5040735;28;20626;-74
2023/07/13 02:03:52;;;;;;;0.10;0.10;;;15.60;99.90;;;;;;5016594;28;20219;-73
2023/07/13 02:06:18;;;;;;;1.50;0.75;;;15.60;99.90;;;;;;5013718;28;20254;-72
2023/07/13 02:08:44;;;;;;;0.20;0.20;;;15.60;99.90;;;;;;5030527;28;20210;-73
2023/07/13 02:11:09;;;;;;;0.32;0.32;;;15.60;99.90;;;;;;5033098;28;20198;-73
2023/07/13 02:13:35;;;;;;;0.10;0.10;;;15.50;99.90;;;;;;5031841;28;20735;-74
2023/07/13 02:16:01;;;;;;;0.52;0.50;;;15.50;99.90;;;;;;5019898;28;20195;-74
2023/07/13 02:18:26;;;;;;;0.10;0.10;;;15.60;99.90;;;;;;5012285;28;20549;-74
2023/07/13 02:20:53;;;;;;;0.20;0.20;;;15.50;99.90;;;;;;5013140;28;20227;-74
2023/07/13 02:23:19;;;;;;;0.28;0.28;;;15.50;99.90;;;;;;5011733;28;20202;-73
2023/07/13 02:25:45;;;;;;;0.22;0.22;;;15.50;99.90;;;;;;5013221;28;20219;-74
2023/07/13 02:28:12;;;;;;;0.10;0.10;;;15.40;99.90;;;;;;5011493;28;20281;-74
2023/07/13 02:30:38;;;;;;;0.40;0.40;;;15.40;99.90;;;;;;5012833;28;20205;-74
2023/07/13 02:33:04;;;;;;;0.70;0.45;;;15.40;99.90;;;;;;5011705;28;20214;-74
2023/07/13 02:35:30;;;;;;;0.10;0.10;;;15.40;99.90;;;;;;5012754;28;20573;-73
2023/07/13 02:37:56;;;;;;;0.22;0.22;;;15.50;99.90;;;;;;5026301;28;20209;-75
2023/07/13 02:40:22;;;;;;;0.10;0.10;;;15.50;99.90;;;;;;5032298;28;20198;-74
2023/07/13 02:42:47;;;;;;;0.10;0.10;;;15.50;99.90;;;;;;5032403;28;20245;-73
2023/07/13 02:45:13;;;;;;;0.90;0.68;;;15.50;99.90;;;;;;5032711;28;20599;-74
2023/07/13 02:47:41;;;;;;;2.30;0.40;;;15.60;99.90;;;;;;5032286;28;20684;-74
2023/07/13 02:50:08;;;;;;;0.22;0.22;;;15.60;99.90;;;;;;5032492;28;20244;-74
2023/07/13 02:52:33;;;;;;;3.72;0.43;;;15.50;99.90;;;;;;5032231;28;20204;-74
2023/07/13 02:54:59;;;;;;;0.40;0.40;;;15.50;99.90;;;;;;5014592;28;20206;-73
2023/07/13 02:57:25;;;;;;;0.10;0.10;;;15.60;99.90;;;;;;5030142;28;20256;-74
2023/07/13 02:59:51;;;;;;;0.20;0.20;;;15.60;99.90;;;;;;5016946;28;20203;-74
2023/07/13 03:02:17;;;;;;;1.10;0.65;;;15.60;99.90;;;;;;5014212;28;20301;-74
2023/07/13 03:04:43;;;;;;;0.13;0.13;;;15.70;99.90;;;;;;5029557;28;20277;-74
2023/07/13 03:07:09;;;;;;;1.23;0.70;;;15.70;99.90;;;;;;5032140;28;20190;-74
2023/07/13 03:09:35;;;;;;;0.35;0.35;;;15.70;99.90;;;;;;5030625;28;20672;-74
2023/07/13 03:12:01;;;;;;;0.45;0.35;;;15.80;99.90;;;;;;5032171;28;20696;-74
2023/07/13 03:14:27;;;;;;;1.05;0.32;;;15.90;99.90;;;;;;5031788;28;20201;-74
2023/07/13 03:16:52;;;;;;;0.30;0.30;;;16.00;99.90;;;;;;5014436;28;20420;-74
2023/07/13 03:19:21;;;;;;;0.10;0.10;;;16.00;99.90;;;;;;5031954;28;20194;-75
2023/07/13 03:21:47;;;;;;;0.10;0.10;;;16.00;99.90;;;;;;5031773;28;20226;-74
2023/07/13 03:24:13;;;;;;;0.47;0.47;;;15.80;99.90;;;;;;5031681;28;20202;-74
2023/07/13 03:26:39;;;;;;;1.08;0.90;;;15.90;99.90;;;;;;5031619;28;20201;-74
2023/07/13 03:29:05;;;;;;;0.30;0.30;;;16.00;99.90;;;;;;5014544;28;20210;-73
2023/07/13 03:31:36;;;;;;;2.92;0.95;;;16.00;99.90;;;;;;5031160;28;20197;-73
2023/07/13 03:34:03;;;;;;;0.13;0.13;;;16.00;99.90;;;;;;5031881;28;20190;-75
2023/07/13 03:36:30;;;;;;;0.28;0.28;;;15.90;99.90;;;;;;5032878;28;20194;-73
2023/07/13 03:38:59;;;;;;;0.10;0.10;;;15.80;99.90;;;;;;5051526;28;20236;-73
2023/07/13 03:41:25;;;;;;;0.10;0.10;;;15.60;99.90;;;;;;5047489;28;20216;-73
2023/07/13 03:43:51;;;;;;;0.85;0.40;;;15.50;99.90;;;;;;5031616;28;20191;-74
2023/07/13 03:46:18;;;;;;;0.35;0.35;;;15.60;99.90;;;;;;5031611;28;20293;-72
2023/07/13 03:48:45;;;;;;;0.40;0.40;;;15.70;99.90;;;;;;5031504;28;20407;-73
2023/07/13 03:51:14;;;;;;;3.38;1.17;;;15.80;99.90;;;;;;5031471;28;20243;-74
2023/07/13 03:53:44;;;;;;;0.20;0.20;;;15.70;99.90;;;;;;5013226;28;20206;-73
2023/07/13 03:56:10;;;;;;;0.10;0.10;;;15.70;99.90;;;;;;5031219;28;20244;-73
2023/07/13 03:58:39;;;;;;;0.22;0.17;;;15.60;99.90;;;;;;5013128;28;20206;-73
2023/07/13 04:01:07;;;;;;;0.43;0.40;;;15.40;99.90;;;;;;5013421;28;20213;-72
2023/07/13 04:03:34;;;;;;;0.70;0.55;;;15.20;99.90;;;;;;5013104;28;20226;-73
2023/07/13 04:06:00;;;;;;;0.17;0.17;;;15.20;99.90;;;;;;5031183;28;20529;-73
2023/07/13 04:08:33;;;;;;;0.40;0.40;;;15.30;99.90;;;;;;5030908;28;20202;-73
2023/07/13 04:10:59;;;;;;;0.10;0.10;;;15.20;99.90;;;;;;5031711;28;20201;-73
2023/07/13 04:13:25;;;;;;;0.10;0.10;;;15.20;99.90;;;;;;5031009;28;20198;-72
2023/07/13 04:15:51;;;;;;;0.38;0.38;;;15.20;99.90;;;;;;5031509;28;20678;-73
2023/07/13 04:18:17;;;;;;;0.43;0.43;;;15.30;99.90;;;;;;5030415;28;20197;-73
2023/07/13 04:20:43;;;;;;;0.10;0.10;;;15.40;99.90;;;;;;5013333;28;20187;-73
2023/07/13 04:23:09;;;;;;;0.20;0.20;;;15.50;99.90;;;;;;5030886;28;20580;-74
2023/07/13 04:25:35;;;;;;;0.20;0.20;;;15.40;99.90;;;;;;5029520;28;20198;-72
2023/07/13 04:28:00;;;;;;;0.22;0.22;;;15.60;99.90;;;;;;5031000;28;20260;-71
2023/07/13 04:30:26;;;;;;;0.25;0.25;;;15.60;99.90;;;;;;5029662;28;20190;-71
2023/07/13 04:32:52;;;;;;;0.20;0.20;;;15.80;99.90;;;;;;5031206;28;20225;-73
2023/07/13 04:35:21;;;;;;;0.30;0.30;;;15.90;99.90;;;;;;5031116;28;20669;-73
2023/07/13 04:37:49;;;;;;;0.63;0.28;;;16.10;99.90;;;;;;5043220;28;20687;-73
2023/07/13 04:40:19;;;;;;;0.10;0.10;;;16.00;99.90;;;;;;5050815;28;20706;-69
2023/07/13 04:42:46;;;;;;;0.38;0.20;;;16.10;99.90;;;;;;5050577;28;20735;-74
2023/07/13 04:45:13;;;;;;;0.30;0.30;;;16.20;99.90;;;;;;5051091;28;20289;-73
2023/07/13 04:47:40;;;;;;;0.15;0.15;;;16.10;99.90;;;;;;5050739;28;20213;-73
2023/07/13 04:50:07;;;;;;;0.20;0.20;;;15.80;99.90;;;;;;5050824;28;20208;-72
2023/07/13 04:52:32;;;;;;;0.68;0.38;;;15.60;99.90;;;;;;5033566;28;20198;-72
2023/07/13 04:55:01;;;;;;;0.28;0.28;;;15.30;99.90;;;;;;5031085;28;20247;-72
2023/07/13 04:57:28;;;;;;;3.63;0.82;;;15.20;99.90;;;;;;5011879;28;20703;-72
2023/07/13 04:59:53;;;;;;;0.10;0.10;;;15.00;99.90;;;;;;5030216;28;20201;-71
2023/07/13 05:02:21;;;;;;;0.50;0.50;;;14.90;99.90;;;;;;5009301;28;20223;-71
2023/07/13 05:04:48;;;;;;;0.13;0.13;;;14.80;99.90;;;;;;5015787;28;20206;-71
2023/07/13 05:07:14;;;;;;;0.20;0.20;;;14.60;99.90;;;;;;5014878;28;20630;-72
2023/07/13 05:09:40;;;;;;;0.35;0.35;;;14.70;99.90;;;;;;5014418;28;20677;-72
2023/07/13 05:12:08;;;;;;;1.45;1.13;;;14.70;99.90;;;;;;5014694;28;20210;-72
2023/07/13 05:14:34;;;;;;;0.35;0.25;;;14.70;99.90;;;;;;5014508;28;20199;-71
2023/07/13 05:16:59;;;;;;;0.20;0.20;;;14.80;99.90;;;;;;5013172;28;20209;-72
2023/07/13 05:19:28;;;;;;;0.70;0.65;;;14.80;99.90;;;;;;5013550;28;20250;-72
2023/07/13 05:21:54;;;;;;;0.17;0.17;;;14.90;99.90;;;;;;5013207;28;20685;-72
2023/07/13 05:24:20;;;;;;;0.10;0.10;;;15.10;99.90;;;;;;5014130;28;20201;-71
2023/07/13 05:26:46;;;;;;;0.38;0.25;;;15.10;99.90;;;;;;5014310;28;20191;-72
2023/07/13 05:29:11;;;;;;;0.90;0.57;;;15.10;99.90;;;;;;5014582;28;20562;-71
2023/07/13 05:31:37;;;;;;;0.95;0.65;;;15.30;99.90;;;;;;5014242;28;20207;-71
2023/07/13 05:34:03;;;;;;;0.93;0.30;;;15.50;99.90;;;;;;5012894;28;20199;-71
2023/07/13 05:36:29;;;;;;;0.10;0.10;;;15.60;99.90;;;;;;5014683;28;20245;-71
2023/07/13 05:38:54;;;;;;;0.03;0.03;;;15.80;99.90;;;;;;5032571;28;20546;-73
2023/07/13 05:41:20;;;;;;;2.38;1.10;;;16.00;99.90;;;;;;5033521;28;20210;-72
2023/07/13 05:43:46;;;;;;;0.88;0.68;;;16.10;99.90;;;;;;5033697;28;20225;-71
2023/07/13 05:46:14;;;;;;;0.15;0.15;;;16.10;99.90;;;;;;5033771;28;20551;-72
2023/07/13 05:48:40;;;;;;;0.47;0.47;;;16.30;99.90;;;;;;5017690;28;20507;-72
2023/07/13 05:51:06;;;;;;;0.30;0.30;;;16.30;99.90;;;;;;5014084;28;20191;-72
2023/07/13 05:53:31;;;;;;;0.15;0.15;;;16.40;99.90;;;;;;5013954;28;20191;-72
2023/07/13 05:55:57;;;;;;;0.30;0.30;;;16.30;99.90;;;;;;5013903;28;20277;-73
2023/07/13 05:58:23;;;;;;;0.40;0.40;;;16.40;99.90;;;;;;5013300;28;20190;-73
2023/07/13 06:00:58;;;;;;;0.25;0.25;;;16.40;99.90;;;;;;5015878;28;20229;-73
2023/07/13 06:03:23;;;;;;;0.20;0.20;;;16.40;99.90;;;;;;5011424;28;20693;-73
2023/07/13 06:05:49;;;;;;;0.10;0.10;;;16.60;99.90;;;;;;5012962;28;20205;-73
2023/07/13 06:08:15;;;;;;;0.10;0.10;;;16.60;99.90;;;;;;5011647;28;20195;-72
2023/07/13 06:10:40;;;;;;;1.75;0.30;;;16.60;99.90;;;;;;5013141;28;20725;-72
2023/07/13 06:13:06;;;;;;;0.52;0.52;;;16.60;99.90;;;;;;5012653;28;20546;-71
2023/07/13 06:15:32;;;;;;;0.20;0.20;;;16.60;99.90;;;;;;4994373;28;20207;-72
2023/07/13 06:17:58;;;;;;;0.30;0.30;;;16.50;99.90;;;;;;5012819;28;20609;-73
2023/07/13 06:20:24;;;;;;;0.10;0.10;;;16.50;99.90;;;;;;5012656;28;20199;-73
2023/07/13 06:22:49;;;;;;;0.30;0.30;;;16.50;99.90;;;;;;5012543;28;20269;-73
2023/07/13 06:25:15;;;;;;;0.20;0.20;;;16.50;99.90;;;;;;5012543;28;20579;-74
2023/07/13 06:27:41;;;;;;;1.85;1.50;;;16.60;99.90;;;;;;5012496;28;20274;-73
2023/07/13 06:30:07;;;;;;;0.75;0.60;;;16.60;99.90;;;;;;5012421;28;20202;-72
2023/07/13 06:32:33;;;;;;;7.88;1.25;;;16.50;99.90;;;;;;5012219;28;20863;-72
2023/07/13 06:34:58;;;;;;;3.80;1.02;;;16.40;99.90;;;;;;5012521;28;20198;-71
2023/07/13 06:37:24;;;;;;;0.68;0.68;;;16.40;99.90;;;;;;5021008;28;20201;-71
2023/07/13 06:39:50;;;;;;;0.52;0.52;;;16.60;99.90;;;;;;5032233;28;20558;-71
2023/07/13 06:42:17;;;;;;;0.30;0.30;;;16.50;99.90;;;;;;5031768;28;20229;-71
2023/07/13 06:44:43;;;;;;;0.20;0.20;;;16.40;99.90;;;;;;5017690;28;20199;-71
2023/07/13 06:47:08;;;;;;;0.47;0.47;;;16.40;99.90;;;;;;5012232;28;20187;-71
2023/07/13 06:49:34;;;;;;;0.30;0.30;;;16.50;99.90;;;;;;5011993;28;20365;-73
2023/07/13 06:52:00;;;;;;;2.33;1.35;;;16.70;99.90;;;;;;5012083;28;20221;-72
2023/07/13 06:54:28;;;;;;;0.40;0.40;;;16.80;99.90;;;;;;5011855;28;20195;-73
2023/07/13 06:56:53;;;;;;;0.35;0.35;;;16.90;99.90;;;;;;5014346;28;20765;-73
2023/07/13 06:59:19;;;;;;;0.55;0.50;;;17.20;99.90;;;;;;5010234;28;20281;-74
2023/07/13 07:01:45;;;;;;;0.52;0.52;;;17.40;99.90;;;;;;5011797;28;20214;-74
2023/07/13 07:04:11;;;;;;;0.22;0.22;;;17.80;99.90;;;;;;5030825;28;20320;-74
2023/07/13 07:06:37;;;;;;;0.30;0.30;;;18.10;99.90;;;;;;5031989;28;20681;-74
2023/07/13 07:09:03;;;;;;;0.57;0.50;;;18.50;99.90;;;;;;5032135;28;20273;-74
2023/07/13 07:11:31;;;;;;;0.47;0.30;;;18.80;99.90;;;;;;5031956;28;20221;-74
2023/07/13 07:13:57;;;;;;;0.30;0.30;;;19.10;99.90;;;;;;5032216;28;20226;-74
2023/07/13 07:16:25;;;;;;;0.88;0.32;;;18.90;99.90;;;;;;5013637;28;20236;-73
2023/07/13 07:18:54;;;;;;;2.60;0.93;;;18.90;99.90;;;;;;5013684;28;20633;-74
2023/07/13 07:21:19;;;;;;;0.45;0.45;;;19.00;99.90;;;;;;5031797;28;20206;-74
2023/07/13 07:23:46;;;;;;;0.30;0.30;;;19.10;99.90;;;;;;5032020;28;20540;-73
2023/07/13 07:26:11;;;;;;;0.45;0.45;;;19.20;99.90;;;;;;5014145;28;20190;-74
2023/07/13 07:28:37;;;;;;;0.30;0.30;;;19.10;99.90;;;;;;5030777;28;20248;-74
2023/07/13 07:31:03;;;;;;;0.22;0.22;;;18.90;99.90;;;;;;5031657;28;20604;-73
2023/07/13 07:33:29;;;;;;;0.82;0.75;;;18.80;99.90;;;;;;5031447;28;20575;-74
2023/07/13 07:35:54;;;;;;;1.02;0.93;;;18.60;99.90;;;;;;5031880;28;20269;-74
2023/07/13 07:38:20;;;;;;;0.30;0.30;;;18.60;99.90;;;;;;5048009;28;20652;-74
2023/07/13 07:40:46;;;;;;;8.57;0.47;;;18.50;99.90;;;;;;5038888;28;20320;-73
2023/07/13 07:43:12;;;;;;;0.30;0.30;;;18.50;99.90;;;;;;5031451;28;20236;-74
2023/07/13 07:45:39;;;;;;;0.22;0.22;;;18.30;99.90;;;;;;5031233;28;20207;-73
2023/07/13 07:48:06;;;;;;;1.77;1.20;;;18.20;99.90;;;;;;5031844;28;20190;-73
2023/07/13 07:50:32;;;;;;;0.30;0.30;;;18.60;99.90;;;;;;5031187;28;20574;-73
2023/07/13 07:52:58;;;;;;;0.70;0.70;;;18.80;99.90;;;;;;5031234;28;20724;-73
2023/07/13 07:55:28;;;;;;;0.20;0.20;;;18.90;99.90;;;;;;5013482;28;20209;-73
2023/07/13 07:57:56;;;;;;;0.38;0.38;;;19.00;99.90;;;;;;5030769;28;20205;-74
2023/07/13 08:00:22;;;;;;;0.30;0.30;;;19.50;99.90;;;;;;5012572;28;20210;-74
2023/07/13 08:02:48;;;;;;;0.20;0.20;;;19.50;99.90;;;;;;5031121;28;20593;-73
2023/07/13 08:05:17;;;;;;;0.20;0.20;;;19.70;99.90;;;;;;5031109;28;20232;-73
2023/07/13 08:07:42;;;;;;;0.30;0.30;;;19.60;99.90;;;;;;5031046;28;20256;-73
2023/07/13 08:10:09;;;;;;;0.60;0.50;;;19.90;99.90;;;;;;5013656;28;20198;-73
2023/07/13 08:12:39;;;;;;;0.50;0.50;;;20.50;99.90;;;;;;5031106;28;20602;-73
2023/07/13 08:15:06;;;;;;;1.25;0.82;;;20.80;99.90;;;;;;5031106;28;20710;-73
2023/07/13 08:17:32;;;;;;;0.30;0.30;;;20.70;99.90;;;;;;5030868;28;20281;-73
2023/07/13 08:19:58;;;;;;;0.20;0.20;;;20.70;99.90;;;;;;5031228;28;20680;-74
2023/07/13 08:22:23;;;;;;;0.22;0.22;;;20.60;99.90;;;;;;5012937;28;20720;-75
2023/07/13 08:24:55;;;;;;;1.95;0.70;;;20.60;99.90;;;;;;5031240;28;20193;-74
2023/07/13 08:27:25;;;;;;;0.20;0.20;;;20.90;99.90;;;;;;5030902;28;20190;-74
2023/07/13 08:29:51;;;;;;;0.22;0.22;;;21.40;99.90;;;;;;5031114;28;20201;-74
2023/07/13 08:32:19;;;;;;;0.20;0.20;;;22.00;99.90;;;;;;5030950;28;20217;-74
2023/07/13 08:34:45;;;;;;;0.20;0.20;;;22.60;99.90;;;;;;5031109;28;20277;-75
2023/07/13 08:37:11;;;;;;;0.85;0.52;;;22.60;99.90;;;;;;5037916;28;20197;-75
2023/07/13 08:39:37;;;;;;;0.30;0.30;;;22.60;99.90;;;;;;5053157;28;20197;-75
2023/07/13 08:42:18;;;;;;;0.60;0.55;;;22.00;99.90;;;;;;5054497;28;20692;-74
2023/07/13 08:45:28;;;;;;;0.80;0.40;;;22.00;99.90;;;;;;5054945;28;20177;-74
2023/07/13 08:47:55;;;;;;;0.20;0.20;;;22.00;99.90;;;;;;5021547;28;20213;-73
2023/07/13 08:50:26;;;;;;;3.80;0.50;;;22.30;99.90;;;;;;5034606;28;20248;-74
2023/07/13 08:52:55;;;;;;;0.73;0.57;;;22.30;99.90;;;;;;5017000;28;20194;-75
2023/07/13 08:55:33;;;;;;;0.50;0.50;;;21.50;99.90;;;;;;5016646;28;20201;-75
2023/07/13 08:58:15;;;;;;;0.20;0.20;;;20.90;99.90;;;;;;5034652;28;20198;-75
2023/07/13 09:00:52;;;;;;;0.22;0.22;;;20.30;99.90;;;;;;5034331;28;20198;-74
2023/07/13 09:03:31;;;;;;;0.30;0.30;;;19.80;99.90;;;;;;5032641;28;20275;-73
2023/07/13 09:05:59;;;;;;;0.73;0.35;;;19.70;99.90;;;;;;5016799;28;20202;-74
2023/07/13 09:08:34;;;;;;;0.50;0.50;;;19.60;99.90;;;;;;5034320;28;20195;-74
2023/07/13 09:11:45;;;;;;;0.30;0.30;;;19.70;99.90;;;;;;5034246;28;20205;-75
2023/07/13 09:14:26;;;;;;;13.55;0.50;;;20.20;99.90;;;;;;5034535;28;20182;-75
2023/07/13 09:16:52;;;;;;;0.22;0.22;;;20.70;99.90;;;;;;5016639;28;20676;-75
2023/07/13 09:19:25;;;;;;;0.50;0.50;;;21.20;99.90;;;;;;5016152;28;20213;-74
2023/07/13 09:21:56;;;;;;;0.20;0.20;;;21.50;99.90;;;;;;5034548;28;20672;-74
2023/07/13 09:24:38;;;;;;;0.20;0.20;;;22.00;99.90;;;;;;5034069;28;20564;-74
2023/07/13 09:27:29;;;;;;;0.40;0.30;;;22.40;99.90;;;;;;5034160;28;20190;-75
2023/07/13 09:30:09;;;;;;;1.02;0.75;;;23.30;99.90;;;;;;5033998;28;20195;-75
2023/07/13 09:32:37;;;;;;;13.80;0.88;;;23.60;99.90;;;;;;5033479;28;20707;-74
2023/07/13 09:35:12;;;;;;;0.35;0.35;;;23.40;99.90;;;;;;5033995;28;20676;-75
2023/07/13 09:37:41;;;;;;;0.63;0.40;;;22.50;99.90;;;;;;5044655;28;20204;-73
2023/07/13 09:40:17;;;;;;;0.20;0.20;;;21.90;99.90;;;;;;5053854;28;20687;-75
2023/07/13 09:42:42;;;;;;;0.52;0.52;;;22.00;99.90;;;;;;5053684;28;20578;-75
2023/07/13 09:45:09;;;;;;;0.60;0.40;;;22.20;99.90;;;;;;5045101;28;20699;-75
2023/07/13 09:47:39;;;;;;;0.20;0.20;;;22.80;99.90;;;;;;5033566;28;20561;-75
2023/07/13 09:50:18;;;;;;;0.20;0.20;;;23.40;99.90;;;;;;5015069;28;20754;-75
2023/07/13 09:52:47;;;;;;;0.28;0.28;;;23.50;99.90;;;;;;5033835;28;20190;-75
2023/07/13 09:55:40;;;;;;;0.20;0.20;;;22.50;99.90;;;;;;5033784;28;20589;-73
2023/07/13 09:58:11;;;;;;;0.28;0.28;;;21.90;99.90;;;;;;5015731;28;20198;-74
2023/07/13 10:00:40;;;;;;;0.20;0.20;;;21.70;99.90;;;;;;5015565;28;20692;-73
2023/07/13 10:03:20;;;;;;;0.73;0.73;;;21.80;99.90;;;;;;5033610;28;20295;-75
2023/07/13 10:05:47;;;;;;;1.65;0.73;;;22.10;99.90;;;;;;5033324;28;20239;-75
2023/07/13 10:08:27;;;;;;;1.00;0.90;;;22.80;99.90;;;;;;5033369;28;20269;-75
2023/07/13 10:11:33;;;;;;;0.30;0.30;;;23.40;99.90;;;;;;5033311;28;20228;-75
2023/07/13 10:14:10;;;;;;;0.47;0.47;;;23.20;99.90;;;;;;4979583;28;20293;-74
2023/07/13 10:16:36;;;;;;;0.25;0.25;;;23.50;99.90;;;;;;5032909;28;20185;-75
2023/07/13 10:19:09;;;;;;;0.20;0.20;;;24.20;99.90;;;;;;5033153;28;20676;-75
2023/07/13 10:21:54;;;;;;;0.98;0.52;;;24.10;99.90;;;;;;5015163;28;20206;-75
2023/07/13 10:24:26;;;;;;;0.20;0.20;;;23.30;99.90;;;;;;5032851;28;20242;-76
2023/07/13 10:27:09;;;;;;;0.20;0.20;;;22.80;99.90;;;;;;5033079;28;20190;-74
2023/07/13 10:29:48;;;;;;;0.30;0.30;;;22.40;99.90;;;;;;5032595;28;20276;-73
2023/07/13 10:32:14;;;;;;;0.98;0.88;;;21.70;99.90;;;;;;5032927;28;20612;-73
2023/07/13 10:34:47;;;;;;;4.00;0.43;;;21.20;99.90;;;;;;5014919;28;20578;-74
2023/07/13 10:37:22;;;;;;;0.20;0.20;;;20.90;99.90;;;;;;5040283;28;20563;-72
2023/07/13 10:39:52;;;;;;;0.40;0.40;;;20.70;99.90;;;;;;5052716;28;20185;-74
2023/07/13 10:42:27;;;;;;;0.40;0.40;;;20.00;99.90;;;;;;5036456;28;20564;-74
2023/07/13 10:44:53;;;;;;;14.80;0.57;;;19.70;99.90;;;;;;5015075;28;20732;-72
2023/07/13 10:47:19;;;;;;;0.40;0.40;;;19.50;99.90;;;;;;5032520;28;20265;-73
2023/07/13 10:49:47;;;;;;;0.35;0.35;;;19.20;99.90;;;;;;5032574;28;20190;-72
2023/07/13 10:52:50;;;;;;;0.30;0.30;;;19.00;99.90;;;;;;5032448;28;20198;-75
2023/07/13 10:55:54;;;;;;;0.10;0.10;;;18.70;99.90;;;;;;5032585;28;20611;-73
2023/07/13 10:58:21;;;;;;;0.50;0.50;;;18.50;99.90;;;;;;5014308;28;20241;-75
2023/07/13 11:01:05;;;;;;;0.20;0.20;;;18.40;99.90;;;;;;5032360;28;20203;-74
2023/07/13 11:03:36;;;;;;;0.20;0.20;;;18.20;99.90;;;;;;5018625;28;20223;-72
2023/07/13 11:06:26;;;;;;;0.43;0.43;;;18.00;99.90;;;;;;5011219;28;20666;-74
2023/07/13 11:08:55;;;;;;;1.67;0.60;;;17.50;99.90;;;;;;5012490;28;20245;-75
2023/07/13 11:11:24;;;;;;;0.38;0.38;;;17.30;99.90;;;;;;5012288;28;20187;-75
2023/07/13 11:13:49;;;;;;;0.57;0.55;;;17.60;99.90;;;;;;5012210;28;20187;-75
2023/07/13 11:16:18;;;;;;;0.30;0.30;;;17.90;99.90;;;;;;5012176;28;20507;-75
2023/07/13 11:18:49;;;;;;;0.30;0.30;;;18.60;99.90;;;;;;5012269;28;20214;-75
2023/07/13 11:21:15;;;;;;;0.47;0.47;;;19.60;99.90;;;;;;4994520;28;20677;-74
2023/07/13 11:23:51;;;;;;;3.05;0.95;;;20.80;99.90;;;;;;5012074;28;20191;-76
2023/07/13 11:26:47;;;;;;;0.30;0.30;;;22.00;99.90;;;;;;4995608;28;20536;-75
2023/07/13 11:29:30;;;;;;;0.30;0.30;;;22.70;99.90;;;;;;4992477;28;20655;-75
2023/07/13 11:31:59;;;;;;;0.40;0.40;;;23.40;99.90;;;;;;4993154;28;20195;-74
2023/07/13 11:34:31;;;;;;;0.20;0.20;;;24.10;99.90;;;;;;4992686;28;20571;-74
2023/07/13 11:36:59;;;;;;;3.35;0.75;;;24.30;99.90;;;;;;4995304;28;22653;-73
2023/07/13 11:39:36;;;;;;;0.38;0.38;;;23.70;99.90;;;;;;4992600;28;20191;-73
2023/07/13 11:42:05;;;;;;;0.52;0.40;;;23.50;99.90;;;;;;4992379;28;20581;-74
2023/07/13 11:44:34;;;;;;;0.30;0.25;;;23.40;99.90;;;;;;4991609;28;20660;-73
2023/07/13 11:47:10;;;;;;;0.30;0.30;;;23.30;99.90;;;;;;4990955;28;20547;-74
2023/07/13 11:49:52;;;;;;;0.20;0.20;;;24.00;99.90;;;;;;4984220;28;20798;-74
2023/07/13 11:52:22;;;;;;;0.63;0.30;;;24.40;99.90;;;;;;5011629;28;20684;-75
2023/07/13 11:54:55;;;;;;;0.30;0.30;;;24.20;99.90;;;;;;5011755;28;20206;-75
2023/07/13 11:57:24;;;;;;;0.22;0.22;;;23.90;99.90;;;;;;5010348;28;20717;-75
2023/07/13 11:59:52;;;;;;;1.58;0.65;;;23.70;99.90;;;;;;5011634;28;20194;-75
2023/07/13 12:02:28;;;;;;;0.25;0.25;;;23.90;99.90;;;;;;5010924;28;20226;-74
2023/07/13 12:04:58;;;;;;;0.20;0.20;;;23.50;99.90;;;;;;5011591;28;20205;-75
2023/07/13 12:07:24;;;;;;;0.25;0.25;;;22.80;99.90;;;;;;5011386;28;20191;-73
2023/07/13 12:09:50;;;;;;;0.32;0.32;;;22.50;99.90;;;;;;5009955;28;20559;-73
2023/07/13 12:12:21;;;;;;;0.20;0.20;;;22.70;99.90;;;;;;5010842;28;20193;-73
2023/07/13 12:14:54;;;;;;;0.20;0.20;;;22.90;99.90;;;;;;5009753;28;20253;-74
2023/07/13 12:17:23;;;;;;;0.22;0.22;;;22.60;99.90;;;;;;5011311;28;20672;-74
2023/07/13 12:19:51;;;;;;;0.20;0.20;;;22.60;99.90;;;;;;5011444;28;20206;-75
2023/07/13 12:22:19;;;;;;;0.10;0.10;;;22.60;99.90;;;;;;5011012;28;20579;-74
2023/07/13 12:24:47;;;;;;;0.40;0.30;;;22.20;99.90;;;;;;5011476;28;20210;-74
2023/07/13 12:27:25;;;;;;;0.20;0.20;;;22.00;99.90;;;;;;5011374;28;20654;-74
2023/07/13 12:30:31;;;;;;;0.25;0.25;;;21.90;99.90;;;;;;5011266;28;20201;-74
2023/07/13 12:33:10;;;;;;;0.32;0.32;;;22.20;99.90;;;;;;5009478;28;20297;-74
2023/07/13 12:35:44;;;;;;;0.20;0.20;;;22.50;99.90;;;;;;4972413;28;20647;-74
2023/07/13 12:38:11;;;;;;;2.00;0.43;;;22.70;99.90;;;;;;5002283;28;20198;-74
2023/07/13 12:40:38;;;;;;;0.30;0.30;;;22.80;99.90;;;;;;5011073;28;20261;-73
2023/07/13 12:43:06;;;;;;;6.35;0.30;;;22.30;99.90;;;;;;5011149;28;20207;-73
2023/07/13 12:45:32;;;;;;;0.28;0.22;;;21.60;99.90;;;;;;5003390;28;20191;-74
2023/07/13 12:48:16;;;;;;;0.30;0.30;;;21.10;99.90;;;;;;4991704;28;20561;-75
2023/07/13 12:50:47;;;;;;;0.20;0.20;;;20.70;99.90;;;;;;4991411;28;20191;-72
2023/07/13 12:53:18;;;;;;;0.30;0.30;;;20.30;99.90;;;;;;4991367;28;20279;-72
2023/07/13 12:55:59;;;;;;;0.15;0.15;;;20.30;99.90;;;;;;4991425;28;20202;-73